createdAt,value
2017-07-09T00:01:48.708Z,20.50
2017-07-09T00:04:16.950Z,20.30
2017-07-09T00:06:44.425Z,20.30
2017-07-09T00:09:12.694Z,20.10
2017-07-09T00:11:40.174Z,20.10
2017-07-09T00:14:07.650Z,20.00
2017-07-09T00:16:35.155Z,20.00
2017-07-09T00:19:02.677Z,19.90
2017-07-09T00:21:30.456Z,19.70
2017-07-09T00:23:58.009Z,19.60
2017-07-09T00:26:25.480Z,19.60
2017-07-09T00:28:52.970Z,19.70
2017-07-09T00:31:21.241Z,20.00
2017-07-09T00:33:49.485Z,20.10
2017-07-09T00:36:16.958Z,20.00
2017-07-09T00:38:44.535Z,20.00
2017-07-09T00:41:12.781Z,20.00
2017-07-09T00:43:40.253Z,19.90
2017-07-09T00:46:07.754Z,19.90
2017-07-09T00:48:35.322Z,19.70
2017-07-09T00:51:02.838Z,19.60
2017-07-09T00:53:31.374Z,19.40
2017-07-09T00:55:58.850Z,19.40
2017-07-09T00:58:26.588Z,19.20
2017-07-09T01:00:54.086Z,19.20
2017-07-09T01:03:21.561Z,19.30
2017-07-09T01:05:49.805Z,19.40
2017-07-09T01:08:17.302Z,19.40
2017-07-09T01:10:45.097Z,19.40
2017-07-09T01:13:12.577Z,19.50
2017-07-09T01:15:40.069Z,19.60
2017-07-09T01:18:08.593Z,19.60
2017-07-09T01:20:36.137Z,19.60
2017-07-09T01:23:03.725Z,19.60
2017-07-09T01:25:31.197Z,19.70
2017-07-09T01:27:58.672Z,19.70
2017-07-09T01:30:26.942Z,19.50
2017-07-09T01:32:54.430Z,19.50
2017-07-09T01:35:21.906Z,19.40
2017-07-09T01:37:49.469Z,19.30
2017-07-09T01:40:16.941Z,19.20
2017-07-09T01:42:44.417Z,19.20
2017-07-09T01:45:11.908Z,19.20
2017-07-09T01:47:40.149Z,19.20
2017-07-09T01:50:07.625Z,19.20
2017-07-09T01:52:35.893Z,19.30
2017-07-09T01:55:03.369Z,19.30
2017-07-09T01:57:31.615Z,19.20
2017-07-09T01:59:59.116Z,19.20
2017-07-09T02:02:26.590Z,19.30
2017-07-09T02:04:54.066Z,19.20
2017-07-09T02:07:21.562Z,19.30
2017-07-09T02:09:49.813Z,19.10
2017-07-09T02:12:17.289Z,19.10
2017-07-09T02:14:44.791Z,19.00
2017-07-09T02:17:12.274Z,19.00
2017-07-09T02:19:39.867Z,19.00
2017-07-09T02:22:08.705Z,19.10
2017-07-09T02:24:36.181Z,19.10
2017-07-09T02:27:03.654Z,19.10
2017-07-09T02:29:31.149Z,19.10
2017-07-09T02:31:58.629Z,19.10
2017-07-09T02:34:26.101Z,19.10
2017-07-09T02:36:53.706Z,19.20
2017-07-09T02:39:21.949Z,19.10
2017-07-09T02:41:49.429Z,19.10
2017-07-09T02:44:16.925Z,19.10
2017-07-09T02:46:44.399Z,18.90
2017-07-09T02:49:12.161Z,18.90
2017-07-09T02:51:39.669Z,18.70
2017-07-09T02:54:07.950Z,18.70
2017-07-09T02:56:36.200Z,18.70
2017-07-09T02:59:03.729Z,18.70
2017-07-09T03:01:31.210Z,18.90
2017-07-09T03:03:58.689Z,19.00
2017-07-09T03:06:26.186Z,19.10
2017-07-09T03:08:53.663Z,19.10
2017-07-09T03:11:21.146Z,19.20
2017-07-09T03:13:48.637Z,19.20
2017-07-09T03:16:16.128Z,19.20
2017-07-09T03:18:43.614Z,19.30
2017-07-09T03:21:11.110Z,19.30
2017-07-09T03:23:38.589Z,19.40
2017-07-09T03:26:06.065Z,19.40
2017-07-09T03:28:33.569Z,19.50
2017-07-09T03:31:01.809Z,19.30
2017-07-09T03:33:29.281Z,19.30
2017-07-09T03:35:56.778Z,19.30
2017-07-09T03:38:24.253Z,19.40
2017-07-09T03:40:51.731Z,19.40
2017-07-09T03:43:19.232Z,19.40
2017-07-09T03:45:47.476Z,19.50
2017-07-09T03:48:14.954Z,19.50
2017-07-09T03:50:43.217Z,19.50
2017-07-09T03:53:10.694Z,19.50
2017-07-09T03:55:38.981Z,19.40
2017-07-09T03:58:06.481Z,19.40
2017-07-09T04:00:33.958Z,19.40
2017-07-09T04:03:01.438Z,19.40
2017-07-09T04:05:29.739Z,19.40
2017-07-09T04:07:57.252Z,19.40
2017-07-09T04:10:24.730Z,19.40
2017-07-09T04:12:52.989Z,19.50
2017-07-09T04:15:20.828Z,19.40
2017-07-09T04:17:48.338Z,19.60
2017-07-09T04:20:16.597Z,19.60
2017-07-09T04:22:44.069Z,19.60
2017-07-09T04:25:12.311Z,19.70
2017-07-09T04:27:39.808Z,19.70
2017-07-09T04:30:07.288Z,19.70
2017-07-09T04:32:34.766Z,19.50
2017-07-09T04:35:02.258Z,19.30
2017-07-09T04:37:30.505Z,19.40
2017-07-09T04:39:57.981Z,19.40
2017-07-09T04:42:25.866Z,19.50
2017-07-09T04:44:54.142Z,19.70
2017-07-09T04:47:22.382Z,19.70
2017-07-09T04:49:49.874Z,19.70
2017-07-09T04:52:18.125Z,19.90
2017-07-09T04:54:45.609Z,19.90
2017-07-09T04:57:13.870Z,20.10
2017-07-09T04:59:41.345Z,20.10
2017-07-09T05:02:09.586Z,20.30
2017-07-09T05:04:37.078Z,20.30
2017-07-09T05:07:04.565Z,20.40
2017-07-09T05:09:32.037Z,20.40
2017-07-09T05:11:59.544Z,20.50
2017-07-09T05:14:27.786Z,20.50
2017-07-09T05:16:55.258Z,20.50
2017-07-09T05:19:22.762Z,20.70
2017-07-09T05:21:50.242Z,20.80
2017-07-09T05:24:17.717Z,20.90
2017-07-09T05:26:45.210Z,21.10
2017-07-09T05:29:13.446Z,21.00
2017-07-09T05:31:40.921Z,20.90
2017-07-09T05:34:08.416Z,20.90
2017-07-09T05:36:35.885Z,20.70
2017-07-09T05:39:03.353Z,20.70
2017-07-09T05:41:30.845Z,20.80
2017-07-09T05:43:58.318Z,20.80
2017-07-09T05:46:26.557Z,20.90
2017-07-09T05:48:54.050Z,20.80
2017-07-09T05:51:22.287Z,21.00
2017-07-09T05:53:49.756Z,21.00
2017-07-09T05:56:17.334Z,21.10
2017-07-09T05:58:45.569Z,21.10
2017-07-09T06:01:13.046Z,21.10
2017-07-09T06:03:40.542Z,21.20
2017-07-09T06:06:08.013Z,21.30
2017-07-09T06:08:35.489Z,21.40
2017-07-09T06:11:02.985Z,21.40
2017-07-09T06:13:30.452Z,21.50
2017-07-09T06:15:58.689Z,21.60
2017-07-09T06:18:26.176Z,21.60
2017-07-09T06:20:54.545Z,21.70
2017-07-09T06:23:22.017Z,21.90
2017-07-09T06:25:50.276Z,22.10
2017-07-09T06:28:17.746Z,22.10
2017-07-09T06:30:46.038Z,22.50
2017-07-09T06:33:14.297Z,22.70
2017-07-09T06:35:41.765Z,22.70
2017-07-09T06:38:10.036Z,22.70
2017-07-09T06:40:38.309Z,22.70
2017-07-09T06:43:05.802Z,22.70
2017-07-09T06:45:33.576Z,22.80
2017-07-09T06:48:01.081Z,22.90
2017-07-09T06:50:28.549Z,23.00
2017-07-09T06:52:56.786Z,22.70
2017-07-09T06:55:24.278Z,22.70
2017-07-09T06:57:52.518Z,22.50
2017-07-09T07:00:19.989Z,22.50
2017-07-09T07:02:47.483Z,22.60
2017-07-09T07:05:14.958Z,22.50
2017-07-09T07:07:42.445Z,22.40
2017-07-09T07:10:10.153Z,22.50
2017-07-09T07:12:38.393Z,23.10
2017-07-09T07:15:05.865Z,23.00
2017-07-09T07:17:33.352Z,23.30
2017-07-09T07:20:00.825Z,23.50
2017-07-09T07:22:28.599Z,23.70
2017-07-09T07:24:56.090Z,24.00
2017-07-09T07:27:23.563Z,24.20
2017-07-09T07:29:51.846Z,24.40
2017-07-09T07:32:20.106Z,24.50
2017-07-09T07:34:47.585Z,24.40
2017-07-09T07:37:15.826Z,24.70
2017-07-09T07:39:43.317Z,24.70
2017-07-09T07:42:11.553Z,25.00
2017-07-09T07:44:39.022Z,25.00
2017-07-09T07:47:06.745Z,25.40
2017-07-09T07:49:34.218Z,26.00
2017-07-09T07:52:01.692Z,26.00
2017-07-09T07:54:29.185Z,26.10
2017-07-09T07:56:57.424Z,25.60
2017-07-09T07:59:24.894Z,25.60
2017-07-09T08:01:52.393Z,25.60
2017-07-09T08:04:19.865Z,26.20
2017-07-09T08:06:47.341Z,26.30
2017-07-09T08:09:14.841Z,26.20
2017-07-09T08:11:43.106Z,27.40
2017-07-09T08:14:11.347Z,27.60
2017-07-09T08:16:39.780Z,27.50
2017-07-09T08:19:07.285Z,27.30
2017-07-09T08:21:34.769Z,27.40
2017-07-09T08:24:02.265Z,27.30
2017-07-09T08:26:29.807Z,26.20
2017-07-09T08:28:57.286Z,26.10
2017-07-09T08:31:25.113Z,26.10
2017-07-09T08:33:52.619Z,26.50
2017-07-09T08:36:20.133Z,26.80
2017-07-09T08:38:48.390Z,26.60
2017-07-09T08:41:15.887Z,26.60
2017-07-09T08:43:43.362Z,26.40
2017-07-09T08:46:10.853Z,26.50
2017-07-09T08:48:38.326Z,26.70
2017-07-09T08:51:05.809Z,27.10
2017-07-09T08:53:33.301Z,27.30
2017-07-09T08:56:00.787Z,27.50
2017-07-09T08:58:28.282Z,27.30
2017-07-09T09:00:55.832Z,26.70
2017-07-09T09:03:23.309Z,26.80
2017-07-09T09:05:50.795Z,26.90
2017-07-09T09:08:18.293Z,26.90
2017-07-09T09:10:46.530Z,27.70
2017-07-09T09:13:14.001Z,27.60
2017-07-09T09:15:41.497Z,27.70
2017-07-09T09:18:08.974Z,27.50
2017-07-09T09:20:36.453Z,27.20
2017-07-09T09:23:03.945Z,27.20
2017-07-09T09:25:31.420Z,27.40
2017-07-09T09:27:59.659Z,28.00
2017-07-09T09:30:27.157Z,28.00
2017-07-09T09:32:55.437Z,28.60
2017-07-09T09:35:23.135Z,28.60
2017-07-09T09:37:50.633Z,29.00
2017-07-09T09:40:18.109Z,28.90
2017-07-09T09:42:46.349Z,28.40
2017-07-09T09:45:13.837Z,28.40
2017-07-09T09:47:42.136Z,28.40
2017-07-09T09:50:09.570Z,28.30
2017-07-09T09:52:37.083Z,28.00
2017-07-09T09:55:04.557Z,27.90
2017-07-09T09:57:32.029Z,27.60
2017-07-09T10:00:00.292Z,27.50
2017-07-09T10:02:27.775Z,27.50
2017-07-09T10:04:56.009Z,27.20
2017-07-09T10:07:23.518Z,27.10
2017-07-09T10:09:50.993Z,26.80
2017-07-09T10:12:18.470Z,26.60
2017-07-09T10:14:45.962Z,26.80
2017-07-09T10:17:14.202Z,27.10
2017-07-09T10:19:41.671Z,27.10
2017-07-09T10:22:09.160Z,26.90
2017-07-09T10:24:37.440Z,26.90
2017-07-09T10:27:05.674Z,26.80
2017-07-09T10:29:33.166Z,26.80
2017-07-09T10:32:01.401Z,27.10
2017-07-09T10:34:28.874Z,27.10
2017-07-09T10:36:56.365Z,27.20
2017-07-09T10:39:24.605Z,27.60
2017-07-09T10:41:52.078Z,27.60
2017-07-09T10:44:19.568Z,27.50
2017-07-09T10:46:47.037Z,27.30
2017-07-09T10:49:14.509Z,27.90
2017-07-09T10:51:42.021Z,28.40
2017-07-09T10:54:10.261Z,28.90
2017-07-09T10:56:37.734Z,28.90
2017-07-09T10:59:05.228Z,29.40
2017-07-09T11:01:32.757Z,29.60
2017-07-09T11:04:01.001Z,30.60
2017-07-09T11:06:28.746Z,30.60
2017-07-09T11:08:56.225Z,30.60
2017-07-09T11:11:23.701Z,30.30
2017-07-09T11:13:51.393Z,30.90
2017-07-09T11:16:18.866Z,31.30
2017-07-09T11:18:46.349Z,30.80
2017-07-09T11:21:13.844Z,30.50
2017-07-09T11:23:42.082Z,31.20
2017-07-09T11:26:09.556Z,31.20
2017-07-09T11:28:37.061Z,31.90
2017-07-09T11:31:04.541Z,32.60
2017-07-09T11:33:32.301Z,33.30
2017-07-09T11:36:00.553Z,34.20
2017-07-09T11:38:28.029Z,34.40
2017-07-09T11:40:55.549Z,34.20
2017-07-09T11:43:23.041Z,34.00
2017-07-09T11:45:50.514Z,33.70
2017-07-09T11:48:17.986Z,34.20
2017-07-09T11:50:45.479Z,34.50
2017-07-09T11:53:13.721Z,35.20
2017-07-09T11:55:41.199Z,35.20
2017-07-09T11:58:08.701Z,35.10
2017-07-09T12:00:36.180Z,35.20
2017-07-09T12:03:03.649Z,35.10
2017-07-09T12:05:31.146Z,35.20
2017-07-09T12:07:59.393Z,35.80
2017-07-09T12:10:26.866Z,35.70
2017-07-09T12:12:54.359Z,36.00
2017-07-09T12:15:21.838Z,34.30
2017-07-09T12:17:49.316Z,34.60
2017-07-09T12:20:16.822Z,35.10
2017-07-09T12:22:44.360Z,35.00
2017-07-09T12:25:12.603Z,35.20
2017-07-09T12:27:40.338Z,35.20
2017-07-09T12:30:07.814Z,34.50
2017-07-09T12:32:35.293Z,34.00
2017-07-09T12:35:02.785Z,34.50
2017-07-09T12:37:30.260Z,35.10
2017-07-09T12:39:58.032Z,35.60
2017-07-09T12:42:25.530Z,35.90
2017-07-09T12:44:53.102Z,36.40
2017-07-09T12:47:21.349Z,36.40
2017-07-09T12:49:48.841Z,36.40
2017-07-09T12:52:17.082Z,36.00
2017-07-09T12:54:44.566Z,35.90
2017-07-09T12:57:12.830Z,35.20
2017-07-09T12:59:40.301Z,35.20
2017-07-09T13:02:08.537Z,34.80
2017-07-09T13:04:36.030Z,34.80
2017-07-09T13:07:03.576Z,34.60
2017-07-09T13:09:31.817Z,34.00
2017-07-09T13:11:59.366Z,34.00
2017-07-09T13:14:26.844Z,33.70
2017-07-09T13:16:54.321Z,33.50
2017-07-09T13:19:22.602Z,33.00
2017-07-09T13:21:50.845Z,32.90
2017-07-09T13:24:18.318Z,32.90
2017-07-09T13:26:45.818Z,32.90
2017-07-09T13:29:13.306Z,33.00
2017-07-09T13:31:40.781Z,33.00
2017-07-09T13:34:08.303Z,32.80
2017-07-09T13:36:35.813Z,32.80
2017-07-09T13:39:03.285Z,32.70
2017-07-09T13:41:31.824Z,32.30
2017-07-09T13:43:59.573Z,32.30
2017-07-09T13:46:27.045Z,31.90
2017-07-09T13:48:54.537Z,31.50
2017-07-09T13:51:22.824Z,31.40
2017-07-09T13:53:51.123Z,31.40
2017-07-09T13:56:18.637Z,31.40
2017-07-09T13:58:46.109Z,31.30
2017-07-09T14:01:14.358Z,30.60
2017-07-09T14:03:41.855Z,30.60
2017-07-09T14:06:10.094Z,30.30
2017-07-09T14:08:37.582Z,30.20
2017-07-09T14:11:05.074Z,30.10
2017-07-09T14:13:32.547Z,29.90
2017-07-09T14:16:00.021Z,29.80
2017-07-09T14:18:27.509Z,29.60
2017-07-09T14:20:55.749Z,29.00
2017-07-09T14:23:23.220Z,29.00
2017-07-09T14:25:50.714Z,28.70
2017-07-09T14:28:18.193Z,28.50
2017-07-09T14:30:45.669Z,28.10
2017-07-09T14:33:13.165Z,27.90
2017-07-09T14:35:41.401Z,27.60
2017-07-09T14:38:08.874Z,27.60
2017-07-09T14:40:36.374Z,27.50
2017-07-09T14:43:03.846Z,27.40
2017-07-09T14:45:31.328Z,27.20
2017-07-09T14:47:58.821Z,26.90
2017-07-09T14:50:27.080Z,26.90
2017-07-09T14:52:54.550Z,26.90
2017-07-09T14:55:22.809Z,26.80
2017-07-09T14:57:50.280Z,26.80
2017-07-09T15:00:17.752Z,26.50
2017-07-09T15:02:46.012Z,26.50
2017-07-09T15:05:13.487Z,26.40
2017-07-09T15:07:41.752Z,26.40
2017-07-09T15:10:10.020Z,26.50
2017-07-09T15:12:38.318Z,26.40
2017-07-09T15:15:06.564Z,26.20
2017-07-09T15:17:34.058Z,26.20
2017-07-09T15:20:01.537Z,26.10
2017-07-09T15:22:29.010Z,26.00
2017-07-09T15:24:56.500Z,26.00
2017-07-09T15:27:23.996Z,26.00
2017-07-09T15:29:51.503Z,26.00
2017-07-09T15:32:19.091Z,26.10
2017-07-09T15:34:46.644Z,26.20
2017-07-09T15:37:15.046Z,26.20
2017-07-09T15:39:42.562Z,26.20
2017-07-09T15:42:10.043Z,26.20
2017-07-09T15:44:37.643Z,26.30
2017-07-09T15:47:05.222Z,26.30
2017-07-09T15:49:32.701Z,26.20
2017-07-09T15:52:00.959Z,26.30
2017-07-09T15:54:28.465Z,26.30
2017-07-09T15:56:55.997Z,26.30
2017-07-09T15:59:24.242Z,26.40
2017-07-09T16:01:51.740Z,26.40
2017-07-09T16:04:19.978Z,26.50
2017-07-09T16:06:47.495Z,26.50
2017-07-09T16:09:14.995Z,26.60
2017-07-09T16:11:42.469Z,26.60
2017-07-09T16:14:10.714Z,26.80
2017-07-09T16:16:38.210Z,26.80
2017-07-09T16:19:06.499Z,26.90
2017-07-09T16:21:33.971Z,26.90
2017-07-09T16:24:01.466Z,27.00
2017-07-09T16:26:28.937Z,27.10
2017-07-09T16:28:56.409Z,27.20
2017-07-09T16:31:24.690Z,27.40
2017-07-09T16:33:52.934Z,27.50
2017-07-09T16:36:20.406Z,27.40
2017-07-09T16:38:47.916Z,27.50
2017-07-09T16:41:15.389Z,27.60
2017-07-09T16:43:42.873Z,27.60
2017-07-09T16:46:10.450Z,27.40
2017-07-09T16:48:38.717Z,27.30
2017-07-09T16:51:06.958Z,26.90
2017-07-09T16:53:34.497Z,26.90
2017-07-09T16:56:01.995Z,26.70
2017-07-09T16:58:30.433Z,26.70
2017-07-09T17:00:58.966Z,26.50
2017-07-09T17:03:26.532Z,26.50
2017-07-09T17:05:54.769Z,26.50
2017-07-09T17:08:22.412Z,26.50
2017-07-09T17:10:49.980Z,26.50
2017-07-09T17:13:17.468Z,26.60
2017-07-09T17:15:44.959Z,26.40
2017-07-09T17:18:12.435Z,26.30
2017-07-09T17:20:39.910Z,26.20
2017-07-09T17:23:07.416Z,26.20
2017-07-09T17:25:35.669Z,26.20
2017-07-09T17:28:03.147Z,26.20
2017-07-09T17:30:32.518Z,26.30
2017-07-09T17:33:00.064Z,26.20
2017-07-09T17:35:27.536Z,26.20
2017-07-09T17:37:55.877Z,26.10
2017-07-09T17:40:23.353Z,26.00
2017-07-09T17:42:50.861Z,25.90
2017-07-09T17:45:18.889Z,26.00
2017-07-09T17:47:46.545Z,26.00
2017-07-09T17:50:14.022Z,26.10
2017-07-09T17:52:41.533Z,26.10
2017-07-09T17:55:09.006Z,26.10
2017-07-09T17:57:36.481Z,26.10
2017-07-09T18:00:03.972Z,26.10
2017-07-09T18:02:32.215Z,26.20
2017-07-09T18:04:59.707Z,26.10
2017-07-09T18:07:28.018Z,26.20
2017-07-09T18:09:55.493Z,26.20
2017-07-09T18:12:22.971Z,26.20
2017-07-09T18:14:50.752Z,26.20
2017-07-09T18:17:18.242Z,26.10
2017-07-09T18:19:45.723Z,26.10
2017-07-09T18:22:13.233Z,26.10
2017-07-09T18:24:41.473Z,26.00
2017-07-09T18:27:09.001Z,26.00
2017-07-09T18:29:36.493Z,25.90
2017-07-09T18:32:04.127Z,25.80
2017-07-09T18:34:31.688Z,25.80
2017-07-09T18:36:59.252Z,25.80
2017-07-09T18:39:26.728Z,25.70
2017-07-09T18:41:54.197Z,25.50
2017-07-09T18:44:21.773Z,25.30
2017-07-09T18:46:50.017Z,25.20
2017-07-09T18:49:17.493Z,25.20
2017-07-09T18:51:45.060Z,25.20
2017-07-09T18:54:13.297Z,25.20
2017-07-09T18:56:40.773Z,25.20
2017-07-09T18:59:08.269Z,25.30
2017-07-09T19:01:35.744Z,25.40
2017-07-09T19:04:03.260Z,25.40
2017-07-09T19:06:31.521Z,25.40
2017-07-09T19:08:58.993Z,25.40
2017-07-09T19:11:27.270Z,25.20
2017-07-09T19:13:55.529Z,25.10
2017-07-09T19:16:23.106Z,25.00
2017-07-09T19:18:51.353Z,25.00
2017-07-09T19:21:18.858Z,25.00
2017-07-09T19:23:46.330Z,24.90
2017-07-09T19:26:13.825Z,24.90
2017-07-09T19:28:41.318Z,24.80
2017-07-09T19:31:09.556Z,24.90
2017-07-09T19:33:37.025Z,24.80
2017-07-09T19:36:04.525Z,24.90
2017-07-09T19:38:32.146Z,24.80
2017-07-09T19:40:59.698Z,24.80
2017-07-09T19:43:27.591Z,24.80
2017-07-09T19:45:55.887Z,24.50
2017-07-09T19:48:23.370Z,24.40
2017-07-09T19:50:50.865Z,24.40
2017-07-09T19:53:18.340Z,24.40
2017-07-09T19:55:46.573Z,24.40
2017-07-09T19:58:14.317Z,24.40
2017-07-09T20:00:41.790Z,24.40
2017-07-09T20:03:09.326Z,24.50
2017-07-09T20:05:36.818Z,24.50
2017-07-09T20:08:04.289Z,24.60
2017-07-09T20:10:31.757Z,24.50
2017-07-09T20:13:00.017Z,24.50
2017-07-09T20:15:27.589Z,24.50
2017-07-09T20:17:56.125Z,24.40
2017-07-09T20:20:23.619Z,24.40
2017-07-09T20:22:51.861Z,24.20
2017-07-09T20:25:19.360Z,24.20
2017-07-09T20:27:47.621Z,24.20
2017-07-09T20:30:15.100Z,24.10
2017-07-09T20:32:43.337Z,24.20
2017-07-09T20:35:10.828Z,24.10
2017-07-09T20:37:39.065Z,24.20
2017-07-09T20:40:06.538Z,24.10
2017-07-09T20:42:34.114Z,24.10
2017-07-09T20:45:02.356Z,24.10
2017-07-09T20:47:30.098Z,24.10
2017-07-09T20:49:57.598Z,24.10
2017-07-09T20:52:25.069Z,24.10
2017-07-09T20:54:53.313Z,23.90
2017-07-09T20:57:20.806Z,23.90
2017-07-09T20:59:49.049Z,23.70
2017-07-09T21:02:16.518Z,23.60
2017-07-09T21:04:44.017Z,23.60
2017-07-09T21:07:11.549Z,23.40
2017-07-09T21:09:39.784Z,23.10
2017-07-09T21:12:07.282Z,23.10
2017-07-09T21:14:35.527Z,22.80
2017-07-09T21:17:02.998Z,22.70
2017-07-09T21:19:30.718Z,22.60
2017-07-09T21:21:58.202Z,22.30
2017-07-09T21:24:25.675Z,22.20
2017-07-09T21:26:53.174Z,22.10
2017-07-09T21:29:20.648Z,21.90
2017-07-09T21:31:48.119Z,21.60
2017-07-09T21:34:15.613Z,21.50
2017-07-09T21:36:43.860Z,21.00
2017-07-09T21:39:12.125Z,20.80
2017-07-09T21:41:39.621Z,20.80
2017-07-09T21:44:07.858Z,20.50
2017-07-09T21:46:35.338Z,20.50
2017-07-09T21:49:02.829Z,20.10
2017-07-09T21:51:30.301Z,19.80
2017-07-09T21:53:57.769Z,19.60
2017-07-09T21:56:25.273Z,19.50
2017-07-09T21:58:52.847Z,19.40
2017-07-09T22:01:21.089Z,19.40
2017-07-09T22:03:48.585Z,19.40
2017-07-09T22:06:16.825Z,19.40
2017-07-09T22:08:44.305Z,19.30
2017-07-09T22:11:12.566Z,19.40
2017-07-09T22:13:40.046Z,19.40
2017-07-09T22:16:08.306Z,19.40
2017-07-09T22:18:36.570Z,19.40
2017-07-09T22:21:04.045Z,19.40
2017-07-09T22:23:32.573Z,19.60
2017-07-09T22:26:00.065Z,19.60
2017-07-09T22:28:27.537Z,19.70
2017-07-09T22:30:55.777Z,19.70
2017-07-09T22:33:23.270Z,19.70
2017-07-09T22:35:51.513Z,19.50
2017-07-09T22:38:19.197Z,19.50
2017-07-09T22:40:46.689Z,19.50
2017-07-09T22:43:14.165Z,19.50
2017-07-09T22:45:41.641Z,19.50
2017-07-09T22:48:09.145Z,19.40
2017-07-09T22:50:37.384Z,19.40
2017-07-09T22:53:04.857Z,19.30
2017-07-09T22:55:32.425Z,19.30
2017-07-09T22:58:00.661Z,19.30
2017-07-09T23:00:28.128Z,19.30
2017-07-09T23:02:55.624Z,19.30
2017-07-09T23:05:23.865Z,19.30
2017-07-09T23:07:51.601Z,19.30
2017-07-09T23:10:19.093Z,19.30
2017-07-09T23:12:46.562Z,19.20
2017-07-09T23:15:14.816Z,19.10
2017-07-09T23:17:42.710Z,19.00
2017-07-09T23:20:10.949Z,19.20
2017-07-09T23:22:38.420Z,19.20
2017-07-09T23:25:05.919Z,19.40
2017-07-09T23:27:33.401Z,19.40
2017-07-09T23:30:00.871Z,19.40
2017-07-09T23:32:28.366Z,19.40
2017-07-09T23:34:56.646Z,19.40
2017-07-09T23:37:24.886Z,19.40
2017-07-09T23:39:52.383Z,19.40
2017-07-09T23:42:20.621Z,19.50
2017-07-09T23:44:48.150Z,19.50
2017-07-09T23:47:15.671Z,19.50
2017-07-09T23:49:43.245Z,19.60
2017-07-09T23:52:10.721Z,19.60
2017-07-09T23:54:38.213Z,19.60
2017-07-09T23:57:05.902Z,19.50
2017-07-09T23:59:34.146Z,19.50
